sensor_id;sensor_type;location;lat;lon;timestamp;pressure;altitude;pressure_sealevel;temperature;humidity
21781;BME280;52576;53.614;9.894;2023-05-12T00:01:39;101516.63;;;11.98;83.83
21781;BME280;52576;53.614;9.894;2023-05-12T00:03:42;101515.78;;;11.98;83.31
21781;BME280;52576;53.614;9.894;2023-05-12T00:05:46;101506.97;;;11.99;83.06
21781;BME280;52576;53.614;9.894;2023-05-12T00:07:50;101513.06;;;11.99;82.89
21781;BME280;52576;53.614;9.894;2023-05-12T00:09:53;101519.16;;;12.00;82.89
21781;BME280;52576;53.614;9.894;2023-05-12T00:11:58;101512.22;;;11.99;82.51
21781;BME280;52576;53.614;9.894;2023-05-12T00:14:01;101511.38;;;11.98;82.35
21781;BME280;52576;53.614;9.894;2023-05-12T00:16:05;101513.91;;;12.00;82.12
21781;BME280;52576;53.614;9.894;2023-05-12T00:18:08;101515.78;;;11.98;81.59
21781;BME280;52576;53.614;9.894;2023-05-12T00:20:12;101520.09;;;11.99;81.57
21781;BME280;52576;53.614;9.894;2023-05-12T00:22:15;101509.59;;;11.99;81.44
21781;BME280;52576;53.614;9.894;2023-05-12T00:24:19;101516.53;;;12.00;81.22
21781;BME280;52576;53.614;9.894;2023-05-12T00:26:22;101520.00;;;12.00;81.34
21781;BME280;52576;53.614;9.894;2023-05-12T00:28:28;101520.84;;;12.01;81.20
21781;BME280;52576;53.614;9.894;2023-05-12T00:30:31;101526.09;;;12.01;81.25
21781;BME280;52576;53.614;9.894;2023-05-12T00:32:35;101513.81;;;12.01;81.14
21781;BME280;52576;53.614;9.894;2023-05-12T00:34:38;101530.41;;;12.02;80.88
21781;BME280;52576;53.614;9.894;2023-05-12T00:36:43;101517.28;;;12.02;81.02
21781;BME280;52576;53.614;9.894;2023-05-12T00:38:46;101524.22;;;12.03;80.83
21781;BME280;52576;53.614;9.894;2023-05-12T00:40:49;101527.59;;;12.05;80.92
21781;BME280;52576;53.614;9.894;2023-05-12T00:42:53;101529.31;;;12.06;80.89
21781;BME280;52576;53.614;9.894;2023-05-12T00:44:57;101529.31;;;12.06;80.94
21781;BME280;52576;53.614;9.894;2023-05-12T00:47:02;101531.00;;;12.07;80.92
21781;BME280;52576;53.614;9.894;2023-05-12T00:49:06;101532.69;;;12.08;80.75
21781;BME280;52576;53.614;9.894;2023-05-12T00:51:11;101531.75;;;12.09;80.43
21781;BME280;52576;53.614;9.894;2023-05-12T00:53:14;101527.25;;;12.11;80.49
21781;BME280;52576;53.614;9.894;2023-05-12T00:55:18;101536.81;;;12.12;80.53
21781;BME280;52576;53.614;9.894;2023-05-12T00:57:24;101533.16;;;12.14;80.44
21781;BME280;52576;53.614;9.894;2023-05-12T00:59:29;101537.38;;;12.17;80.23
21781;BME280;52576;53.614;9.894;2023-05-12T01:01:34;101532.03;;;12.18;80.34
21781;BME280;52576;53.614;9.894;2023-05-12T01:03:39;101539.69;;;12.21;80.25
21781;BME280;52576;53.614;9.894;2023-05-12T01:05:48;101540.56;;;12.22;79.95
21781;BME280;52576;53.614;9.894;2023-05-12T01:07:52;101538.69;;;12.24;80.16
21781;BME280;52576;53.614;9.894;2023-05-12T01:09:56;101543.00;;;12.25;80.21
21781;BME280;52576;53.614;9.894;2023-05-12T01:12:01;101538.50;;;12.27;80.18
21781;BME280;52576;53.614;9.894;2023-05-12T01:14:06;101539.25;;;12.29;80.20
21781;BME280;52576;53.614;9.894;2023-05-12T01:16:12;101543.56;;;12.30;80.22
21781;BME280;52576;53.614;9.894;2023-05-12T01:18:19;101543.56;;;12.30;80.05
21781;BME280;52576;53.614;9.894;2023-05-12T01:20:25;101550.50;;;12.31;79.96
21781;BME280;52576;53.614;9.894;2023-05-12T01:22:30;101553.13;;;12.31;79.31
21781;BME280;52576;53.614;9.894;2023-05-12T01:24:49;101540.00;;;12.31;79.08
21781;BME280;52576;53.614;9.894;2023-05-12T01:26:54;101550.50;;;12.31;78.88
21781;BME280;52576;53.614;9.894;2023-05-12T01:28:59;101544.31;;;12.32;78.72
21781;BME280;52576;53.614;9.894;2023-05-12T01:31:03;101546.94;;;12.32;78.66
21781;BME280;52576;53.614;9.894;2023-05-12T01:33:10;101550.31;;;12.34;78.56
21781;BME280;52576;53.614;9.894;2023-05-12T01:35:13;101552.00;;;12.35;78.81
21781;BME280;52576;53.614;9.894;2023-05-12T01:37:23;101549.38;;;12.35;78.48
21781;BME280;52576;53.614;9.894;2023-05-12T01:39:28;101553.72;;;12.36;78.67
21781;BME280;52576;53.614;9.894;2023-05-12T01:41:31;101549.28;;;12.37;78.62
21781;BME280;52576;53.614;9.894;2023-05-12T01:43:36;101553.72;;;12.36;78.29
21781;BME280;52576;53.614;9.894;2023-05-12T01:45:40;101552.75;;;12.37;78.33
21781;BME280;52576;53.614;9.894;2023-05-12T01:47:44;101557.19;;;12.37;78.18
21781;BME280;52576;53.614;9.894;2023-05-12T01:49:47;101555.50;;;12.36;78.42
21781;BME280;52576;53.614;9.894;2023-05-12T01:51:50;101557.28;;;12.35;78.47
21781;BME280;52576;53.614;9.894;2023-05-12T01:53:59;101552.84;;;12.36;78.59
21781;BME280;52576;53.614;9.894;2023-05-12T01:56:06;101564.22;;;12.36;78.91
21781;BME280;52576;53.614;9.894;2023-05-12T01:58:10;101558.13;;;12.36;79.12
21781;BME280;52576;53.614;9.894;2023-05-12T02:00:16;101562.53;;;12.35;79.28
21781;BME280;52576;53.614;9.894;2023-05-12T02:02:22;101566.09;;;12.34;79.57
21781;BME280;52576;53.614;9.894;2023-05-12T02:04:25;101573.03;;;12.35;79.45
21781;BME280;52576;53.614;9.894;2023-05-12T02:06:30;101569.56;;;12.35;79.77
21781;BME280;52576;53.614;9.894;2023-05-12T02:08:33;101569.56;;;12.35;79.53
21781;BME280;52576;53.614;9.894;2023-05-12T02:10:38;101565.25;;;12.34;79.49
21781;BME280;52576;53.614;9.894;2023-05-12T02:12:41;101571.34;;;12.34;79.26
21781;BME280;52576;53.614;9.894;2023-05-12T02:14:45;101574.06;;;12.33;79.00
21781;BME280;52576;53.614;9.894;2023-05-12T02:16:50;101574.91;;;12.33;79.15
21781;BME280;52576;53.614;9.894;2023-05-12T02:18:56;101581.03;;;12.34;79.28
21781;BME280;52576;53.614;9.894;2023-05-12T02:21:00;101577.56;;;12.33;79.24
21781;BME280;52576;53.614;9.894;2023-05-12T02:23:04;101578.50;;;12.32;79.29
21781;BME280;52576;53.614;9.894;2023-05-12T02:25:08;101578.50;;;12.32;79.25
21781;BME280;52576;53.614;9.894;2023-05-12T02:27:12;101582.06;;;12.31;79.40
21781;BME280;52576;53.614;9.894;2023-05-12T02:29:16;101580.38;;;12.30;79.28
21781;BME280;52576;53.614;9.894;2023-05-12T02:31:19;101582.06;;;12.31;79.08
21781;BME280;52576;53.614;9.894;2023-05-12T02:33:24;101582.06;;;12.31;79.39
21781;BME280;52576;53.614;9.894;2023-05-12T02:35:28;101582.91;;;12.32;79.17
21781;BME280;52576;53.614;9.894;2023-05-12T02:37:31;101589.94;;;12.31;79.06
21781;BME280;52576;53.614;9.894;2023-05-12T02:39:35;101584.69;;;12.31;78.96
21781;BME280;52576;53.614;9.894;2023-05-12T02:41:38;101592.47;;;12.33;79.11
21781;BME280;52576;53.614;9.894;2023-05-12T02:43:42;101586.38;;;12.32;79.19
21781;BME280;52576;53.614;9.894;2023-05-12T02:45:45;101582.06;;;12.31;79.10
21781;BME280;52576;53.614;9.894;2023-05-12T02:47:49;101587.31;;;12.31;78.84
21781;BME280;52576;53.614;9.894;2023-05-12T02:49:54;101576.97;;;12.28;78.66
21781;BME280;52576;53.614;9.894;2023-05-12T02:51:58;101586.66;;;12.28;78.69
21781;BME280;52576;53.614;9.894;2023-05-12T02:54:01;101585.81;;;12.27;78.75
21781;BME280;52576;53.614;9.894;2023-05-12T02:56:05;101585.81;;;12.27;78.79
21781;BME280;52576;53.614;9.894;2023-05-12T02:58:09;101591.06;;;12.27;78.90
21781;BME280;52576;53.614;9.894;2023-05-12T03:00:13;101578.84;;;12.26;79.22
21781;BME280;52576;53.614;9.894;2023-05-12T03:02:17;101585.03;;;12.25;79.26
21781;BME280;52576;53.614;9.894;2023-05-12T03:04:20;101584.28;;;12.23;79.56
21781;BME280;52576;53.614;9.894;2023-05-12T03:06:25;101584.28;;;12.23;79.59
21781;BME280;52576;53.614;9.894;2023-05-12T03:08:29;101583.44;;;12.22;79.56
21781;BME280;52576;53.614;9.894;2023-05-12T03:10:32;101586.19;;;12.21;79.09
21781;BME280;52576;53.614;9.894;2023-05-12T03:12:36;101591.56;;;12.19;79.15
21781;BME280;52576;53.614;9.894;2023-05-12T03:14:39;101599.53;;;12.18;79.12
21781;BME280;52576;53.614;9.894;2023-05-12T03:16:43;101589.94;;;12.17;79.34
21781;BME280;52576;53.614;9.894;2023-05-12T03:18:47;101593.50;;;12.16;79.46
21781;BME280;52576;53.614;9.894;2023-05-12T03:20:51;101597.91;;;12.15;79.85
21781;BME280;52576;53.614;9.894;2023-05-12T03:22:57;101598.75;;;12.16;79.74
21781;BME280;52576;53.614;9.894;2023-05-12T03:25:02;101596.22;;;12.14;80.02
21781;BME280;52576;53.614;9.894;2023-05-12T03:27:06;101598.00;;;12.14;80.03
21781;BME280;52576;53.614;9.894;2023-05-12T03:29:10;101598.94;;;12.13;80.08
21781;BME280;52576;53.614;9.894;2023-05-12T03:31:13;101593.69;;;12.13;80.05
21781;BME280;52576;53.614;9.894;2023-05-12T03:33:17;101601.56;;;12.13;80.10
21781;BME280;52576;53.614;9.894;2023-05-12T03:35:20;101598.94;;;12.13;80.10
21781;BME280;52576;53.614;9.894;2023-05-12T03:37:24;101595.47;;;12.12;79.89
21781;BME280;52576;53.614;9.894;2023-05-12T03:39:29;101603.34;;;12.12;79.73
21781;BME280;52576;53.614;9.894;2023-05-12T03:41:33;101605.91;;;12.14;79.86
21781;BME280;52576;53.614;9.894;2023-05-12T03:43:36;101598.00;;;12.14;80.07
21781;BME280;52576;53.614;9.894;2023-05-12T03:45:40;101597.06;;;12.15;79.92
21781;BME280;52576;53.614;9.894;2023-05-12T03:47:43;101598.75;;;12.16;80.01
21781;BME280;52576;53.614;9.894;2023-05-12T03:49:47;101596.97;;;12.16;79.85
21781;BME280;52576;53.614;9.894;2023-05-12T03:51:50;101594.34;;;12.16;79.78
21781;BME280;52576;53.614;9.894;2023-05-12T03:53:54;101603.09;;;12.17;80.09
21781;BME280;52576;53.614;9.894;2023-05-12T03:56:02;101608.34;;;12.17;80.09
21781;BME280;52576;53.614;9.894;2023-05-12T03:58:06;101605.72;;;12.17;80.18
21781;BME280;52576;53.614;9.894;2023-05-12T04:00:11;101610.03;;;12.18;80.03
21781;BME280;52576;53.614;9.894;2023-05-12T04:02:17;101610.03;;;12.18;80.36
21781;BME280;52576;53.614;9.894;2023-05-12T04:04:21;101609.94;;;12.19;80.09
21781;BME280;52576;53.614;9.894;2023-05-12T04:06:24;101613.28;;;12.21;80.20
21781;BME280;52576;53.614;9.894;2023-05-12T04:08:28;101610.56;;;12.23;80.16
21781;BME280;52576;53.614;9.894;2023-05-12T04:10:31;101610.47;;;12.24;80.25
21781;BME280;52576;53.614;9.894;2023-05-12T04:12:36;101619.13;;;12.27;79.98
21781;BME280;52576;53.614;9.894;2023-05-12T04:14:42;101614.63;;;12.29;79.95
21781;BME280;52576;53.614;9.894;2023-05-12T04:16:45;101621.47;;;12.31;79.91
21781;BME280;52576;53.614;9.894;2023-05-12T04:18:49;101625.81;;;12.32;80.01
21781;BME280;52576;53.614;9.894;2023-05-12T04:20:53;101624.78;;;12.35;79.72
21781;BME280;52576;53.614;9.894;2023-05-12T04:22:56;101621.13;;;12.37;79.57
21781;BME280;52576;53.614;9.894;2023-05-12T04:24:59;101627.13;;;12.39;79.75
21781;BME280;52576;53.614;9.894;2023-05-12T04:27:03;101625.25;;;12.41;79.65
21781;BME280;52576;53.614;9.894;2023-05-12T04:29:10;101627.78;;;12.43;79.40
21781;BME280;52576;53.614;9.894;2023-05-12T04:31:14;101632.03;;;12.45;79.48
21781;BME280;52576;53.614;9.894;2023-05-12T04:33:18;101637.06;;;12.48;79.26
21781;BME280;52576;53.614;9.894;2023-05-12T04:35:21;101636.88;;;12.51;79.58
21781;BME280;52576;53.614;9.894;2023-05-12T04:37:25;101641.97;;;12.54;79.58
21781;BME280;52576;53.614;9.894;2023-05-12T04:39:28;101635.66;;;12.57;79.54
21781;BME280;52576;53.614;9.894;2023-05-12T04:41:32;101638.13;;;12.60;79.20
21781;BME280;52576;53.614;9.894;2023-05-12T04:43:36;101643.19;;;12.63;78.91
21781;BME280;52576;53.614;9.894;2023-05-12T04:45:44;101644.78;;;12.66;78.67
21781;BME280;52576;53.614;9.894;2023-05-12T04:47:48;101636.81;;;12.67;78.67
21781;BME280;52576;53.614;9.894;2023-05-12T04:49:53;101648.00;;;12.71;78.16
21781;BME280;52576;53.614;9.894;2023-05-12T04:51:56;101646.13;;;12.73;77.80
21781;BME280;52576;53.614;9.894;2023-05-12T04:54:00;101651.16;;;12.76;77.69
21781;BME280;52576;53.614;9.894;2023-05-12T04:56:05;101656.22;;;12.79;78.04
21781;BME280;52576;53.614;9.894;2023-05-12T04:58:12;101656.88;;;12.82;78.09
21781;BME280;52576;53.614;9.894;2023-05-12T05:00:16;101656.69;;;12.85;77.86
21781;BME280;52576;53.614;9.894;2023-05-12T05:02:22;101664.31;;;12.90;77.46
21781;BME280;52576;53.614;9.894;2023-05-12T05:04:26;101667.69;;;12.92;77.04
21781;BME280;52576;53.614;9.894;2023-05-12T05:06:30;101666.66;;;12.95;76.67
21781;BME280;52576;53.614;9.894;2023-05-12T05:08:34;101672.59;;;12.98;76.67
21781;BME280;52576;53.614;9.894;2023-05-12T05:10:38;101676.59;;;13.04;76.98
21781;BME280;52576;53.614;9.894;2023-05-12T05:12:41;101673.69;;;13.08;76.50
21781;BME280;52576;53.614;9.894;2023-05-12T05:14:46;101682.13;;;13.13;76.99
21781;BME280;52576;53.614;9.894;2023-05-12T05:16:49;101674.94;;;13.17;76.58
21781;BME280;52576;53.614;9.894;2023-05-12T05:18:54;101675.41;;;13.23;76.50
21781;BME280;52576;53.614;9.894;2023-05-12T05:20:59;101673.38;;;13.27;76.23
21781;BME280;52576;53.614;9.894;2023-05-12T05:23:03;101682.69;;;13.33;75.91
21781;BME280;52576;53.614;9.894;2023-05-12T05:25:08;101683.34;;;13.36;75.38
21781;BME280;52576;53.614;9.894;2023-05-12T05:27:12;101683.16;;;13.39;74.67
21781;BME280;52576;53.614;9.894;2023-05-12T05:29:15;101694.34;;;13.43;74.50
21781;BME280;52576;53.614;9.894;2023-05-12T05:31:19;101692.25;;;13.48;74.88
21781;BME280;52576;53.614;9.894;2023-05-12T05:33:23;101691.84;;;13.54;74.81
21781;BME280;52576;53.614;9.894;2023-05-12T05:35:29;101704.63;;;13.60;75.03
21781;BME280;52576;53.614;9.894;2023-05-12T05:37:33;101701.59;;;13.66;74.93
21781;BME280;52576;53.614;9.894;2023-05-12T05:39:37;101702.25;;;13.70;74.45
21781;BME280;52576;53.614;9.894;2023-05-12T05:41:40;101703.00;;;13.72;74.39
21781;BME280;52576;53.614;9.894;2023-05-12T05:43:43;101706.28;;;13.75;74.05
21781;BME280;52576;53.614;9.894;2023-05-12T05:45:47;101700.69;;;13.80;73.85
21781;BME280;52576;53.614;9.894;2023-05-12T05:47:52;101703.75;;;13.86;73.63
21781;BME280;52576;53.614;9.894;2023-05-12T05:49:56;101706.09;;;13.91;73.36
21781;BME280;52576;53.614;9.894;2023-05-12T05:52:01;101703.16;;;13.96;72.82
21781;BME280;52576;53.614;9.894;2023-05-12T05:54:05;101709.84;;;14.01;72.93
21781;BME280;52576;53.614;9.894;2023-05-12T05:56:08;101710.34;;;14.06;73.71
21781;BME280;52576;53.614;9.894;2023-05-12T05:58:12;101714.38;;;14.12;73.75
21781;BME280;52576;53.614;9.894;2023-05-12T06:00:16;101712.06;;;14.20;73.56
21781;BME280;52576;53.614;9.894;2023-05-12T06:02:24;101724.75;;;14.27;72.90
21781;BME280;52576;53.614;9.894;2023-05-12T06:04:28;101720.72;;;14.35;72.01
21781;BME280;52576;53.614;9.894;2023-05-12T06:06:32;101730.81;;;14.42;71.82
21781;BME280;52576;53.614;9.894;2023-05-12T06:08:36;101728.41;;;14.52;71.79
21781;BME280;52576;53.614;9.894;2023-05-12T06:10:40;101724.28;;;14.60;71.82
21781;BME280;52576;53.614;9.894;2023-05-12T06:12:43;101734.31;;;14.68;71.90
21781;BME280;52576;53.614;9.894;2023-05-12T06:14:46;101734.53;;;14.78;70.86
21781;BME280;52576;53.614;9.894;2023-05-12T06:16:50;101735.56;;;14.88;70.77
21781;BME280;52576;53.614;9.894;2023-05-12T06:18:53;101738.53;;;14.96;70.78
21781;BME280;52576;53.614;9.894;2023-05-12T06:20:57;101730.06;;;15.04;70.40
21781;BME280;52576;53.614;9.894;2023-05-12T06:23:00;101735.44;;;15.15;69.82
21781;BME280;52576;53.614;9.894;2023-05-12T06:25:06;101724.13;;;15.25;69.36
21781;BME280;52576;53.614;9.894;2023-05-12T06:27:09;101730.66;;;15.33;68.68
21781;BME280;52576;53.614;9.894;2023-05-12T06:29:13;101735.25;;;15.42;68.82
21781;BME280;52576;53.614;9.894;2023-05-12T06:31:16;101741.59;;;15.52;68.13
21781;BME280;52576;53.614;9.894;2023-05-12T06:33:21;101739.03;;;15.63;68.01
21781;BME280;52576;53.614;9.894;2023-05-12T06:35:25;101740.06;;;15.73;67.56
21781;BME280;52576;53.614;9.894;2023-05-12T06:37:29;101741.06;;;15.83;66.53
21781;BME280;52576;53.614;9.894;2023-05-12T06:39:32;101747.56;;;15.90;65.99
21781;BME280;52576;53.614;9.894;2023-05-12T06:41:37;101739.94;;;15.99;65.09
21781;BME280;52576;53.614;9.894;2023-05-12T06:43:40;101753.44;;;16.07;64.85
21781;BME280;52576;53.614;9.894;2023-05-12T06:45:44;101745.75;;;16.15;64.63
21781;BME280;52576;53.614;9.894;2023-05-12T06:47:47;101747.72;;;16.24;64.12
21781;BME280;52576;53.614;9.894;2023-05-12T06:49:52;101751.59;;;16.31;64.06
21781;BME280;52576;53.614;9.894;2023-05-12T06:51:55;101756.19;;;16.40;63.45
21781;BME280;52576;53.614;9.894;2023-05-12T06:53:59;101746.81;;;16.47;62.52
21781;BME280;52576;53.614;9.894;2023-05-12T06:56:05;101751.66;;;16.53;62.47
21781;BME280;52576;53.614;9.894;2023-05-12T06:58:10;101758.16;;;16.60;63.01
21781;BME280;52576;53.614;9.894;2023-05-12T07:00:15;101760.25;;;16.68;63.07
21781;BME280;52576;53.614;9.894;2023-05-12T07:02:23;101748.34;;;16.74;62.07
21781;BME280;52576;53.614;9.894;2023-05-12T07:04:26;101745.97;;;16.82;62.26
21781;BME280;52576;53.614;9.894;2023-05-12T07:06:30;101751.63;;;16.88;62.08
21781;BME280;52576;53.614;9.894;2023-05-12T07:08:35;101752.69;;;16.97;61.63
21781;BME280;52576;53.614;9.894;2023-05-12T07:10:38;101761.00;;;17.04;60.88
21781;BME280;52576;53.614;9.894;2023-05-12T07:12:42;101758.59;;;17.12;60.80
21781;BME280;52576;53.614;9.894;2023-05-12T07:14:47;101764.00;;;17.21;60.46
21781;BME280;52576;53.614;9.894;2023-05-12T07:16:50;101758.00;;;17.30;59.38
21781;BME280;52576;53.614;9.894;2023-05-12T07:18:53;101767.88;;;17.40;58.61
21781;BME280;52576;53.614;9.894;2023-05-12T07:20:57;101769.03;;;17.47;58.29
21781;BME280;52576;53.614;9.894;2023-05-12T07:23:00;101771.94;;;17.55;58.25
21781;BME280;52576;53.614;9.894;2023-05-12T07:25:05;101764.22;;;17.63;57.46
21781;BME280;52576;53.614;9.894;2023-05-12T07:27:09;101766.97;;;17.73;57.56
21781;BME280;52576;53.614;9.894;2023-05-12T07:29:12;101769.13;;;17.79;57.36
21781;BME280;52576;53.614;9.894;2023-05-12T07:31:17;101765.88;;;17.86;57.64
21781;BME280;52576;53.614;9.894;2023-05-12T07:33:21;101767.03;;;17.93;57.41
21781;BME280;52576;53.614;9.894;2023-05-12T07:35:24;101774.38;;;18.01;56.67
21781;BME280;52576;53.614;9.894;2023-05-12T07:37:27;101777.38;;;18.08;56.13
21781;BME280;52576;53.614;9.894;2023-05-12T07:39:31;101775.06;;;18.14;56.41
21781;BME280;52576;53.614;9.894;2023-05-12T07:41:34;101770.06;;;18.21;55.93
21781;BME280;52576;53.614;9.894;2023-05-12T07:43:40;101773.44;;;18.23;54.95
21781;BME280;52576;53.614;9.894;2023-05-12T07:45:44;101770.66;;;18.24;54.19
21781;BME280;52576;53.614;9.894;2023-05-12T07:47:49;101774.16;;;18.25;53.53
21781;BME280;52576;53.614;9.894;2023-05-12T07:49:53;101779.31;;;18.26;53.91
21781;BME280;52576;53.614;9.894;2023-05-12T07:51:56;101770.97;;;18.31;54.18
21781;BME280;52576;53.614;9.894;2023-05-12T07:54:00;101775.78;;;18.37;53.78
21781;BME280;52576;53.614;9.894;2023-05-12T07:56:03;101783.94;;;18.45;53.47
21781;BME280;52576;53.614;9.894;2023-05-12T07:58:09;101779.78;;;18.52;53.37
21781;BME280;52576;53.614;9.894;2023-05-12T08:00:13;101781.00;;;18.59;53.72
21781;BME280;52576;53.614;9.894;2023-05-12T08:02:16;101780.50;;;18.66;53.64
21781;BME280;52576;53.614;9.894;2023-05-12T08:04:23;101783.31;;;18.74;53.10
21781;BME280;52576;53.614;9.894;2023-05-12T08:06:29;101782.78;;;18.80;52.30
21781;BME280;52576;53.614;9.894;2023-05-12T08:08:33;101784.22;;;18.84;51.26
21781;BME280;52576;53.614;9.894;2023-05-12T08:10:37;101788.44;;;18.86;51.12
21781;BME280;52576;53.614;9.894;2023-05-12T08:12:41;101787.34;;;18.89;50.80
21781;BME280;52576;53.614;9.894;2023-05-12T08:14:44;101778.13;;;18.93;50.92
21781;BME280;52576;53.614;9.894;2023-05-12T08:16:48;101785.84;;;18.96;51.12
21781;BME280;52576;53.614;9.894;2023-05-12T08:18:51;101788.06;;;19.01;51.81
21781;BME280;52576;53.614;9.894;2023-05-12T08:20:59;101785.72;;;19.07;51.66
21781;BME280;52576;53.614;9.894;2023-05-12T08:23:02;101787.59;;;19.16;51.64
21781;BME280;52576;53.614;9.894;2023-05-12T08:25:06;101784.69;;;19.29;51.63
21781;BME280;52576;53.614;9.894;2023-05-12T08:27:13;101791.47;;;19.43;51.54
21781;BME280;52576;53.614;9.894;2023-05-12T08:29:17;101793.06;;;19.55;51.45
21781;BME280;52576;53.614;9.894;2023-05-12T08:31:20;101797.31;;;19.67;50.97
21781;BME280;52576;53.614;9.894;2023-05-12T08:33:24;101792.72;;;19.79;50.44
21781;BME280;52576;53.614;9.894;2023-05-12T08:35:27;101793.72;;;19.87;49.25
21781;BME280;52576;53.614;9.894;2023-05-12T08:37:33;101794.41;;;19.89;48.52
21781;BME280;52576;53.614;9.894;2023-05-12T08:39:36;101798.63;;;19.92;48.42
21781;BME280;52576;53.614;9.894;2023-05-12T08:41:42;101792.19;;;19.94;47.85
21781;BME280;52576;53.614;9.894;2023-05-12T08:43:50;101796.25;;;19.98;47.75
21781;BME280;52576;53.614;9.894;2023-05-12T08:45:54;101793.03;;;20.05;47.67
21781;BME280;52576;53.614;9.894;2023-05-12T08:47:59;101796.09;;;20.10;47.86
21781;BME280;52576;53.614;9.894;2023-05-12T08:50:04;101797.38;;;20.15;47.45
21781;BME280;52576;53.614;9.894;2023-05-12T08:52:08;101792.47;;;20.20;46.64
21781;BME280;52576;53.614;9.894;2023-05-12T08:54:14;101795.97;;;20.30;46.40
21781;BME280;52576;53.614;9.894;2023-05-12T08:56:19;101796.56;;;20.44;46.39
21781;BME280;52576;53.614;9.894;2023-05-12T08:58:26;101797.25;;;20.55;46.45
21781;BME280;52576;53.614;9.894;2023-05-12T09:00:43;101795.00;;;20.60;45.34
21781;BME280;52576;53.614;9.894;2023-05-12T09:02:48;101791.06;;;20.64;45.69
21781;BME280;52576;53.614;9.894;2023-05-12T09:04:55;101797.22;;;20.75;45.38
21781;BME280;52576;53.614;9.894;2023-05-12T09:06:59;101794.94;;;20.80;45.11
21781;BME280;52576;53.614;9.894;2023-05-12T09:09:02;101792.00;;;20.83;45.08
21781;BME280;52576;53.614;9.894;2023-05-12T09:11:10;101795.22;;;20.86;44.53
21781;BME280;52576;53.614;9.894;2023-05-12T09:13:16;101787.91;;;20.88;44.68
21781;BME280;52576;53.614;9.894;2023-05-12T09:15:38;101789.16;;;20.94;44.72
21781;BME280;52576;53.614;9.894;2023-05-12T09:17:46;101792.94;;;21.01;44.03
21781;BME280;52576;53.614;9.894;2023-05-12T09:19:49;101783.66;;;21.05;43.48
21781;BME280;52576;53.614;9.894;2023-05-12T09:21:53;101782.38;;;21.09;42.75
21781;BME280;52576;53.614;9.894;2023-05-12T09:23:58;101790.78;;;21.14;42.60
21781;BME280;52576;53.614;9.894;2023-05-12T09:26:01;101782.50;;;21.17;42.59
21781;BME280;52576;53.614;9.894;2023-05-12T09:28:07;101789.34;;;21.20;42.41
21781;BME280;52576;53.614;9.894;2023-05-12T09:30:11;101778.56;;;21.21;41.85
21781;BME280;52576;53.614;9.894;2023-05-12T09:32:15;101780.81;;;21.26;41.96
21781;BME280;52576;53.614;9.894;2023-05-12T09:34:25;101786.91;;;21.36;43.01
21781;BME280;52576;53.614;9.894;2023-05-12T09:36:29;101784.22;;;21.46;41.26
21781;BME280;52576;53.614;9.894;2023-05-12T09:38:33;101786.00;;;21.55;40.51
21781;BME280;52576;53.614;9.894;2023-05-12T09:40:37;101778.06;;;21.63;40.09
21781;BME280;52576;53.614;9.894;2023-05-12T09:42:41;101772.81;;;21.71;40.07
21781;BME280;52576;53.614;9.894;2023-05-12T09:44:46;101775.59;;;21.79;40.02
21781;BME280;52576;53.614;9.894;2023-05-12T09:46:49;101777.47;;;21.87;39.81
21781;BME280;52576;53.614;9.894;2023-05-12T09:48:55;101776.44;;;21.97;39.58
21781;BME280;52576;53.614;9.894;2023-05-12T09:50:58;101774.38;;;22.09;39.24
21781;BME280;52576;53.614;9.894;2023-05-12T09:53:04;101781.94;;;22.14;37.79
21781;BME280;52576;53.614;9.894;2023-05-12T09:55:10;101779.97;;;22.16;37.58
21781;BME280;52576;53.614;9.894;2023-05-12T09:57:15;101783.31;;;22.18;37.60
21781;BME280;52576;53.614;9.894;2023-05-12T09:59:19;101777.38;;;22.24;37.19
21781;BME280;52576;53.614;9.894;2023-05-12T10:01:29;101785.75;;;22.29;36.92
21781;BME280;52576;53.614;9.894;2023-05-12T10:03:33;101784.47;;;22.33;35.82
21781;BME280;52576;53.614;9.894;2023-05-12T10:05:45;101785.47;;;22.32;35.21
21781;BME280;52576;53.614;9.894;2023-05-12T10:07:50;101783.78;;;22.31;35.83
21781;BME280;52576;53.614;9.894;2023-05-12T10:09:58;101784.47;;;22.33;36.06
21781;BME280;52576;53.614;9.894;2023-05-12T10:12:03;101778.78;;;22.36;35.78
21781;BME280;52576;53.614;9.894;2023-05-12T10:14:07;101776.66;;;22.40;34.91
21781;BME280;52576;53.614;9.894;2023-05-12T10:16:11;101780.53;;;22.45;35.23
21781;BME280;52576;53.614;9.894;2023-05-12T10:18:16;101778.94;;;22.52;35.26
21781;BME280;52576;53.614;9.894;2023-05-12T10:20:20;101776.16;;;22.62;35.31
21781;BME280;52576;53.614;9.894;2023-05-12T10:22:24;101781.09;;;22.75;35.30
21781;BME280;52576;53.614;9.894;2023-05-12T10:24:28;101777.00;;;22.88;34.84
21781;BME280;52576;53.614;9.894;2023-05-12T10:26:32;101778.59;;;22.99;34.32
21781;BME280;52576;53.614;9.894;2023-05-12T10:28:35;101780.28;;;23.00;32.92
21781;BME280;52576;53.614;9.894;2023-05-12T10:30:40;101779.03;;;22.86;32.65
21781;BME280;52576;53.614;9.894;2023-05-12T10:32:44;101778.03;;;22.69;33.20
21781;BME280;52576;53.614;9.894;2023-05-12T10:34:49;101768.50;;;22.67;34.01
21781;BME280;52576;53.614;9.894;2023-05-12T10:36:53;101778.41;;;22.75;33.21
21781;BME280;52576;53.614;9.894;2023-05-12T10:39:03;101771.25;;;22.75;33.09
21781;BME280;52576;53.614;9.894;2023-05-12T10:41:07;101778.56;;;22.73;34.05
21781;BME280;52576;53.614;9.894;2023-05-12T10:43:20;101764.91;;;22.76;33.60
21781;BME280;52576;53.614;9.894;2023-05-12T10:45:24;101763.47;;;22.82;33.14
21781;BME280;52576;53.614;9.894;2023-05-12T10:47:35;101766.97;;;22.82;33.89
21781;BME280;52576;53.614;9.894;2023-05-12T10:49:40;101768.41;;;22.77;34.27
21781;BME280;52576;53.614;9.894;2023-05-12T10:51:48;101775.53;;;22.68;34.42